createdAt,value
2022-12-20T00:01:31.220Z,15.50
2022-12-20T00:06:36.170Z,15.50
2022-12-20T00:11:41.193Z,15.50
2022-12-20T00:16:43.220Z,15.50
2022-12-20T00:21:44.895Z,15.40
2022-12-20T00:26:46.504Z,15.40
2022-12-20T00:31:48.734Z,15.40
2022-12-20T00:36:50.520Z,15.40
2022-12-20T00:41:52.157Z,15.40
2022-12-20T00:46:53.993Z,15.40
2022-12-20T00:51:55.895Z,15.40
2022-12-20T00:56:57.633Z,15.40
2022-12-20T01:01:59.537Z,15.40
2022-12-20T01:07:01.254Z,15.40
2022-12-20T01:12:02.899Z,15.30
2022-12-20T01:17:04.578Z,15.30
2022-12-20T01:22:06.195Z,15.30
2022-12-20T01:27:07.936Z,15.30
2022-12-20T01:32:09.681Z,15.30
2022-12-20T01:37:11.598Z,15.30
2022-12-20T01:42:16.055Z,15.30
2022-12-20T01:47:17.950Z,15.30
2022-12-20T01:52:23.013Z,15.30
2022-12-20T01:57:27.349Z,15.20
2022-12-20T02:02:29.208Z,15.20
2022-12-20T02:07:33.333Z,15.20
2022-12-20T02:12:45.294Z,15.20
2022-12-20T02:17:50.007Z,15.20
2022-12-20T02:23:00.931Z,15.20
2022-12-20T02:28:21.338Z,15.20
2022-12-20T02:33:24.005Z,15.20
2022-12-20T02:38:27.968Z,15.20
2022-12-20T02:43:49.626Z,15.20
2022-12-20T02:48:51.961Z,15.20
2022-12-20T02:53:53.635Z,15.20
2022-12-20T02:58:58.757Z,15.20
2022-12-20T03:04:00.968Z,15.10
2022-12-20T03:09:02.833Z,15.10
2022-12-20T03:14:04.434Z,15.20
2022-12-20T03:19:06.262Z,15.20
2022-12-20T03:24:08.012Z,15.20
2022-12-20T03:29:10.228Z,15.20
2022-12-20T03:34:11.921Z,15.20
2022-12-20T03:39:13.757Z,15.20
2022-12-20T03:44:15.707Z,15.20
2022-12-20T03:49:17.618Z,15.20
2022-12-20T03:54:19.316Z,15.20
2022-12-20T03:59:21.087Z,15.20
2022-12-20T04:04:22.774Z,15.20
2022-12-20T04:09:24.662Z,15.20
2022-12-20T04:14:26.340Z,15.20
2022-12-20T04:19:28.096Z,15.20
2022-12-20T04:24:29.890Z,15.20
2022-12-20T04:29:31.795Z,15.20
2022-12-20T04:34:33.635Z,15.20
2022-12-20T04:39:35.333Z,15.20
2022-12-20T04:44:37.029Z,15.20
2022-12-20T06:07:03.861Z,16.00
2022-12-20T06:12:05.570Z,16.20
2022-12-20T06:17:07.313Z,16.30
2022-12-20T06:22:09.040Z,16.30
2022-12-20T06:27:11.619Z,16.30
2022-12-20T06:32:13.193Z,16.30
2022-12-20T06:37:14.989Z,16.20
2022-12-20T06:42:16.814Z,16.20
2022-12-20T06:47:18.503Z,16.30
2022-12-20T06:52:20.380Z,16.30
2022-12-20T06:57:22.170Z,16.30
2022-12-20T07:02:27.214Z,16.20
2022-12-20T07:07:29.394Z,16.20
2022-12-20T07:12:31.051Z,16.30
2022-12-20T07:17:32.727Z,16.30
2022-12-20T07:22:34.717Z,16.30
2022-12-20T07:27:36.429Z,16.30
2022-12-20T07:32:38.874Z,16.20
2022-12-20T07:37:40.686Z,16.20
2022-12-20T07:42:48.248Z,16.10
2022-12-20T07:47:50.921Z,16.10
2022-12-20T07:52:52.673Z,16.10
2022-12-20T07:57:57.436Z,16.00
2022-12-20T08:03:02.532Z,16.00
2022-12-20T08:08:05.023Z,15.90
2022-12-20T08:13:07.460Z,15.90
2022-12-20T08:18:09.104Z,15.90
2022-12-20T08:23:10.753Z,15.80
2022-12-20T08:28:12.439Z,15.80
2022-12-20T08:33:14.154Z,15.70
2022-12-20T08:38:15.754Z,15.70
2022-12-20T08:43:17.803Z,15.60
2022-12-20T08:48:19.545Z,15.60
2022-12-20T08:53:21.706Z,15.60
2022-12-20T08:58:23.637Z,15.60
2022-12-20T09:03:25.859Z,15.50
2022-12-20T09:08:27.699Z,15.50
2022-12-20T09:13:29.391Z,15.50
2022-12-20T09:18:31.497Z,15.50
2022-12-20T09:23:34.056Z,15.40
2022-12-20T09:28:35.737Z,15.40
2022-12-20T09:33:37.568Z,15.40
2022-12-20T09:38:39.277Z,15.40
2022-12-20T09:43:41.779Z,15.40
2022-12-20T09:48:43.820Z,15.30
2022-12-20T09:53:54.718Z,15.30
2022-12-20T09:59:02.031Z,15.30
2022-12-20T10:04:06.007Z,15.30
2022-12-20T10:09:13.754Z,15.30
2022-12-20T10:14:23.403Z,15.20
2022-12-20T10:19:30.917Z,15.20
2022-12-20T10:24:33.874Z,15.20
2022-12-20T10:29:35.609Z,15.20
2022-12-20T10:34:41.018Z,15.20
2022-12-20T10:39:48.213Z,15.20
2022-12-20T10:44:50.314Z,15.20
2022-12-20T10:49:52.060Z,15.20
2022-12-20T10:54:53.716Z,15.20
2022-12-20T10:59:56.935Z,15.10
2022-12-20T11:04:59.120Z,15.10
2022-12-20T11:10:02.808Z,15.10
2022-12-20T11:15:09.292Z,15.10
2022-12-20T11:20:30.529Z,15.10
2022-12-20T11:25:44.314Z,15.10
2022-12-20T11:30:53.326Z,15.10
2022-12-20T11:36:01.156Z,15.10
2022-12-20T11:41:11.280Z,15.10
2022-12-20T11:46:39.013Z,15.10
2022-12-20T11:51:45.129Z,15.10
2022-12-20T11:56:48.227Z,15.10
2022-12-20T12:01:54.671Z,15.10
2022-12-20T12:06:58.111Z,15.10
2022-12-20T12:12:07.726Z,15.10
2022-12-20T12:17:14.348Z,15.10
2022-12-20T12:22:20.470Z,15.10
2022-12-20T12:27:24.282Z,15.10
2022-12-20T12:32:30.708Z,15.10
2022-12-20T12:37:44.334Z,15.00
2022-12-20T12:43:09.251Z,15.10
2022-12-20T12:48:17.768Z,15.10
2022-12-20T12:53:19.715Z,15.00
2022-12-20T12:58:24.712Z,15.00
2022-12-20T13:03:35.423Z,15.00
2022-12-20T13:08:55.875Z,15.00
2022-12-20T13:14:16.263Z,15.00
2022-12-20T13:19:27.111Z,15.00
2022-12-20T13:24:34.946Z,15.00
2022-12-20T13:29:36.732Z,15.00
2022-12-20T13:34:53.006Z,15.00
2022-12-20T13:39:55.438Z,15.00
2022-12-20T13:44:57.298Z,15.00
2022-12-20T13:50:03.049Z,15.00
2022-12-20T13:55:08.191Z,15.00
2022-12-20T14:00:27.782Z,15.00
2022-12-20T14:05:34.722Z,15.00
2022-12-20T14:10:36.875Z,15.00
2022-12-20T14:15:38.484Z,15.00
2022-12-20T14:20:40.133Z,15.00
2022-12-20T14:25:48.624Z,15.00
2022-12-20T14:30:50.608Z,15.00
2022-12-20T14:35:52.366Z,15.00
2022-12-20T14:40:54.506Z,15.00
2022-12-20T14:46:28.729Z,15.00
2022-12-20T14:51:30.515Z,15.00
2022-12-20T14:56:33.445Z,15.00
2022-12-20T15:01:41.730Z,14.90
2022-12-20T15:06:45.896Z,14.90
2022-12-20T15:11:51.709Z,14.90
2022-12-20T15:16:53.497Z,14.90
2022-12-20T15:21:55.284Z,14.90
2022-12-20T15:26:57.028Z,14.90
2022-12-20T15:32:13.691Z,14.90
2022-12-20T15:37:18.740Z,14.90
2022-12-20T15:42:21.037Z,14.90
2022-12-20T15:47:22.716Z,14.90
2022-12-20T15:52:24.804Z,14.90
2022-12-20T15:57:28.686Z,14.90
2022-12-20T16:02:31.179Z,14.90
2022-12-20T16:07:33.258Z,14.90
2022-12-20T16:12:35.464Z,14.90
2022-12-20T16:17:37.246Z,14.80
2022-12-20T16:22:38.931Z,14.80
2022-12-20T16:27:40.855Z,14.90
2022-12-20T16:32:42.633Z,14.90
2022-12-20T16:37:44.535Z,14.90
2022-12-20T16:42:46.614Z,14.80
2022-12-20T16:47:48.484Z,14.90
2022-12-20T16:52:50.666Z,15.00
2022-12-20T16:57:53.465Z,15.20
2022-12-20T17:02:56.178Z,15.60
2022-12-20T17:07:58.029Z,15.90
2022-12-20T17:13:00.049Z,16.10
2022-12-20T17:18:01.952Z,16.40
2022-12-20T17:23:03.597Z,16.70
2022-12-20T17:28:06.278Z,16.90
2022-12-20T17:33:10.542Z,16.90
2022-12-20T17:38:12.558Z,17.00
2022-12-20T17:43:14.355Z,17.00
2022-12-20T17:48:16.524Z,17.00
2022-12-20T17:53:18.296Z,17.00
2022-12-20T17:58:20.051Z,17.00
2022-12-20T18:04:01.471Z,17.00
2022-12-20T18:08:43.896Z,17.10
2022-12-20T18:13:46.605Z,17.20
2022-12-20T18:18:48.778Z,17.40
2022-12-20T18:23:50.617Z,17.50
2022-12-20T18:28:56.598Z,17.50
2022-12-20T18:33:59.071Z,17.50
2022-12-20T18:39:02.065Z,17.50
2022-12-20T18:44:04.749Z,17.60
2022-12-20T18:49:06.517Z,17.70
2022-12-20T18:54:08.362Z,17.70
2022-12-20T18:59:12.723Z,17.60
2022-12-20T19:04:20.828Z,17.50
2022-12-20T19:09:26.117Z,17.50
2022-12-20T19:14:27.759Z,17.50
2022-12-20T19:19:29.521Z,17.60
2022-12-20T19:24:31.206Z,17.70
2022-12-20T19:29:32.933Z,17.80
2022-12-20T19:34:34.577Z,17.70
2022-12-20T19:39:36.310Z,17.60
2022-12-20T19:44:38.138Z,17.50
2022-12-20T19:49:39.935Z,17.50
2022-12-20T19:54:43.285Z,17.70
2022-12-20T19:59:45.094Z,17.70
2022-12-20T20:04:46.733Z,17.80
2022-12-20T20:09:48.350Z,17.70
2022-12-20T20:14:52.335Z,17.60
2022-12-20T20:19:54.318Z,17.50
2022-12-20T20:24:56.214Z,17.40
2022-12-20T20:29:57.868Z,17.40
2022-12-20T20:34:59.689Z,17.50
2022-12-20T20:40:01.276Z,17.70
2022-12-20T20:45:03.194Z,17.80
2022-12-20T20:50:05.138Z,17.70
2022-12-20T20:55:07.326Z,17.70
2022-12-20T21:00:09.231Z,17.70
2022-12-20T21:10:33.921Z,17.50
2022-12-20T21:15:35.841Z,17.30
2022-12-20T21:20:38.077Z,17.20
2022-12-20T21:25:39.863Z,17.10
2022-12-20T21:30:41.593Z,17.00
2022-12-20T21:35:47.103Z,16.90
2022-12-20T21:40:51.984Z,16.90
2022-12-20T21:45:53.682Z,16.80
2022-12-20T21:51:02.402Z,16.70
2022-12-20T21:56:04.134Z,16.70
2022-12-20T22:01:06.219Z,16.60
2022-12-20T22:06:07.892Z,16.50
2022-12-20T22:11:10.674Z,16.50
2022-12-20T22:16:13.533Z,16.40
2022-12-20T22:21:15.742Z,16.40
2022-12-20T22:26:18.900Z,16.30
2022-12-20T22:31:20.989Z,16.30
2022-12-20T22:36:25.704Z,16.30
2022-12-20T22:41:28.925Z,16.20
2022-12-20T22:46:30.939Z,16.20
2022-12-20T22:51:33.494Z,16.10
2022-12-20T22:56:35.532Z,16.10
2022-12-20T23:01:37.426Z,16.10
2022-12-20T23:06:39.098Z,16.00
2022-12-20T23:11:59.454Z,16.00
2022-12-20T23:17:01.465Z,16.00
2022-12-20T23:22:22.096Z,15.90
2022-12-20T23:27:24.962Z,15.90
2022-12-20T23:32:26.718Z,15.90
2022-12-20T23:37:29.103Z,15.90
2022-12-20T23:42:30.994Z,15.80
2022-12-20T23:47:32.788Z,15.80
2022-12-20T23:52:34.493Z,15.80
2022-12-20T23:57:36.041Z,15.80
